AirNav   Phillips 66 Aviation Fuel
 
 1576 users online  

M90 William Robert Johnston Municipal Airport
Mendota, California, USA

GOING TO MENDOTA?


FAA INFORMATION EFFECTIVE 19 JULY 2018

Location

FAA Identifier: M90
Lat/Long: 36-45-31.0000N / 120-22-17.0000W
36-45.516667N / 120-22.283333W
36.7586111 / -120.3713889
(estimated)
Elevation: 162 ft. / 49 m (estimated)
Variation: 15E (1985)
Time zone: UTC -7 (UTC -8 during Standard Time)
Zip code: 93640

Airport Operations

Airport use: Open to the public
Activation date: 08/1957
Control tower: no
ARTCC: OAKLAND CENTER
FSS: RANCHO MURIETA FLIGHT SERVICE STATION
NOTAMs facility: RIU (NOTAM-D service available)
Attendance: UNATNDD
Wind indicator: yes
Segmented circle: yes

Airport Communications

CTAF: 122.9
WX ASOS at MAE (18 nm NE): 134.725 (559-674-1781)

Nearby radio navigation aids

VOR radial/distance  VOR name  Freq  Var
PXNr066/19.8PANOCHE VORTAC112.6016E
HYPr162/27.7EL NIDO VOR/DME114.2015E
CZQr239/27.8CLOVIS VORTAC112.9015E
ROMr005/(39.7)PRIEST VOR110.0016E

Airport Services

Parking: tiedowns

Runway Information

Runway 15/33

Dimensions: 3499 x 50 ft. / 1066 x 15 m
Surface: asphalt, in fair condition
Weight bearing capacity: 
Single wheel: 12.5
RUNWAY 15  RUNWAY 33
Latitude: 36-45.798333N36-45.251500N
Longitude: 120-22.404667W120-22.177167W
Gradient: 0.1%0.1%
Traffic pattern: leftright
Displaced threshold: no777 ft.
Markings: basic, in fair conditionbasic, in fair condition
Runway end identifier lights: nono
Obstructions: none17 ft. bldg, 423 ft. from runway, 190 ft. left of centerline, 13:1 slope to clear
APCH RATIO TO DSPLCD THR 50:1.

Airport Ownership and Management from official FAA records

Ownership: Publicly-owned
Owner: CITY OF MENDOTA
643 QUINCE ST
MENDOTA, CA 93640-2334
Phone 559-655-4298
Manager: JENNIFER LEKUMBERRY
643 QUINCE ST
MENDOTA, CA 93640-2334
Phone (559) 630-2849
CITY MANAGER X 106.

Airport Operational Statistics

Aircraft operations: avg 77/week *
50% transient general aviation
50% local general aviation
* for 12-month period ending 11 October 2017

Additional Remarks

ARPT CLSD NIGHTS.
FOR CD CTC NORCAL APCH AT 916-361-0516.
PARL TWY ROUGH/UNEVEN SFC; EXTSV ASPH RPR AND PATCHING.

Instrument Procedures

There are no published instrument procedures at M90.

Some nearby airports with instrument procedures:

F34 - Firebaugh Airport (8 nm NW)
KMAE - Madera Municipal Airport (18 nm NE)
KFCH - Fresno Chandler Executive Airport (27 nm E)
KLSN - Los Banos Municipal Airport (30 nm NW)
KFAT - Fresno Yosemite International Airport (31 nm E)
 
Loc | Ops | Rwys | IFR | FBO | Links
Com | Nav | Svcs | Stats | Notes


 
Area around M90 (William Robert Johnston Municipal Airport)
 
Road maps at: MapQuest Bing Google
 
Aerial photo
WARNING: Photo may not be current or correct
Aerial photo of M90 (William Robert Johnston Municipal Airport)
Do you have a better or more recent aerial photo of William Robert Johnston Municipal Airport that you would like to share? If so, please send us your photo.

 
Sectional chart

 
Airport distance calculator
Flying to William Robert Johnston Municipal Airport? Find the distance to fly.

From to M90

Sunrise and sunset
Times for 15-Aug-2018
 Local
(UTC-7)
 Zulu
(UTC)
Morning civil twilight05:5212:52
Sunrise06:2013:20
Sunset19:5202:52
Evening civil twilight20:2003:20

Current date and time
Zulu (UTC)  15-Aug-2018 19:37:43
Local (UTC-7)  15-Aug-2018 12:37:43
 
METAR
KMAE 
18nm NE 
151853Z AUTO 28007KT 240V300 10SM CLR 28/13 A2992 RMK AO2 SLP128 T02780133
KFCH 
27nm E 
151815Z AUTO 32006KT 8SM CLR 26/12 A2991 RMK A01
KFAT 
32nm E 
151853Z 32003KT 9SM FEW070 29/12 A2991 RMK AO2 SLP125 MTNS OBSC FU HZ DSNT N-E-S CU DSNT E T02940122 $
KMCE 
32nm N 
151853Z AUTO 31008KT 10SM CLR 27/13 A2990 RMK AO2 SLP125 T02720128
KNLC 
33nm SE 
151856Z 35004KT 10SM SCT065 30/11 A2991 RMK AO2 SLP127 FU SCT065 RH/31 T03000111
TAF
KFAT 
32nm E 
151722Z 1518/1618 30007KT P6SM SKC= TAF KBFL 151722Z 1518/1618 VRB03KT P6SM SKC FM152100 30011G18KT P6SM SKC
KMCE 
32nm N 
151722Z 1518/1618 33009KT P6SM SKC
KNLC 
33nm SE 
1515/1615 32006KT 9999 FEW065 QNH2988INS FM151900 03007KT 9999 FEW065 QNH2976NS TEMPO 1521/1602 18008KT 3200 FU HZ FM160200 32010KT 9999 FEW065 QNH2975INS T36/1523Z T17/1613Z FS30067
KMER 
39nm N 
151722Z 1518/1618 31008KT P6SM SKC AMD NOT SKED
NOTAMs
Click for the latest NOTAMs
NOTAMs are issued by the DoD/FAA and will open in a separate window not controlled by AirNav.

 

 
 

Would you like to see your business listed on this page?

 If your business provides an interesting product or service to pilots, flight crews, aircraft, or users of the William Robert Johnston Municipal Airport, you should consider listing it here.  To start the listing process, click on the button below
 
Add a business
 

Other Pages about William Robert Johnston Municipal Airport

Update a link
 
Copyright © AirNav, LLC. All rights reserved. Privacy Policy  Contact